sensor_id;sensor_type;location;lat;lon;timestamp;P1;durP1;ratioP1;P2;durP2;ratioP2
9306;SDS011;4691;47.612;7.610;2022-11-23T00:00:22;11.60;;;3.97;;
9306;SDS011;4691;47.612;7.610;2022-11-23T00:02:52;8.88;;;3.58;;
9306;SDS011;4691;47.612;7.610;2022-11-23T00:05:21;10.20;;;3.97;;
9306;SDS011;4691;47.612;7.610;2022-11-23T00:07:46;10.38;;;4.13;;
9306;SDS011;4691;47.612;7.610;2022-11-23T00:10:11;9.00;;;3.70;;
9306;SDS011;4691;47.612;7.610;2022-11-23T00:12:37;8.63;;;3.92;;
9306;SDS011;4691;47.612;7.610;2022-11-23T00:15:03;8.35;;;4.25;;
9306;SDS011;4691;47.612;7.610;2022-11-23T00:17:29;15.35;;;7.22;;
9306;SDS011;4691;47.612;7.610;2022-11-23T00:19:54;26.33;;;10.98;;
9306;SDS011;4691;47.612;7.610;2022-11-23T00:22:19;24.58;;;10.63;;
9306;SDS011;4691;47.612;7.610;2022-11-23T00:24:45;17.50;;;8.80;;
9306;SDS011;4691;47.612;7.610;2022-11-23T00:27:10;19.00;;;8.93;;
9306;SDS011;4691;47.612;7.610;2022-11-23T00:29:36;14.23;;;6.32;;
9306;SDS011;4691;47.612;7.610;2022-11-23T00:32:01;9.95;;;5.35;;
9306;SDS011;4691;47.612;7.610;2022-11-23T00:34:26;11.00;;;4.82;;
9306;SDS011;4691;47.612;7.610;2022-11-23T00:36:51;11.90;;;5.13;;
9306;SDS011;4691;47.612;7.610;2022-11-23T00:39:17;8.15;;;4.53;;
9306;SDS011;4691;47.612;7.610;2022-11-23T00:41:42;11.27;;;4.65;;
9306;SDS011;4691;47.612;7.610;2022-11-23T00:44:07;12.77;;;4.72;;
9306;SDS011;4691;47.612;7.610;2022-11-23T00:46:33;10.23;;;4.30;;
9306;SDS011;4691;47.612;7.610;2022-11-23T00:48:58;11.27;;;4.85;;
9306;SDS011;4691;47.612;7.610;2022-11-23T00:51:28;12.65;;;4.55;;
9306;SDS011;4691;47.612;7.610;2022-11-23T00:53:55;7.30;;;3.70;;
9306;SDS011;4691;47.612;7.610;2022-11-23T00:56:21;10.38;;;4.45;;
9306;SDS011;4691;47.612;7.610;2022-11-23T00:58:50;12.98;;;4.88;;
9306;SDS011;4691;47.612;7.610;2022-11-23T01:01:24;13.43;;;4.13;;
9306;SDS011;4691;47.612;7.610;2022-11-23T01:03:58;13.45;;;5.13;;
9306;SDS011;4691;47.612;7.610;2022-11-23T01:06:28;13.27;;;4.63;;
9306;SDS011;4691;47.612;7.610;2022-11-23T01:08:56;12.32;;;5.13;;
9306;SDS011;4691;47.612;7.610;2022-11-23T01:11:31;10.27;;;4.32;;
9306;SDS011;4691;47.612;7.610;2022-11-23T01:13:57;9.85;;;4.82;;
9306;SDS011;4691;47.612;7.610;2022-11-23T01:16:42;15.82;;;5.10;;
9306;SDS011;4691;47.612;7.610;2022-11-23T01:19:09;17.55;;;6.10;;
9306;SDS011;4691;47.612;7.610;2022-11-23T01:21:36;18.48;;;5.60;;
9306;SDS011;4691;47.612;7.610;2022-11-23T01:24:03;18.17;;;5.88;;
9306;SDS011;4691;47.612;7.610;2022-11-23T01:26:30;22.27;;;6.30;;
9306;SDS011;4691;47.612;7.610;2022-11-23T01:28:55;16.13;;;6.03;;
9306;SDS011;4691;47.612;7.610;2022-11-23T01:31:21;19.08;;;6.03;;
9306;SDS011;4691;47.612;7.610;2022-11-23T01:33:51;16.52;;;5.30;;
9306;SDS011;4691;47.612;7.610;2022-11-23T01:36:21;16.85;;;5.30;;
9306;SDS011;4691;47.612;7.610;2022-11-23T01:38:49;11.48;;;5.13;;
9306;SDS011;4691;47.612;7.610;2022-11-23T01:41:16;15.98;;;5.70;;
9306;SDS011;4691;47.612;7.610;2022-11-23T01:43:43;16.58;;;5.30;;
9306;SDS011;4691;47.612;7.610;2022-11-23T01:46:09;12.23;;;4.10;;
9306;SDS011;4691;47.612;7.610;2022-11-23T01:51:17;10.18;;;3.53;;
9306;SDS011;4691;47.612;7.610;2022-11-23T01:53:56;11.80;;;4.28;;
9306;SDS011;4691;47.612;7.610;2022-11-23T01:56:27;18.00;;;6.45;;
9306;SDS011;4691;47.612;7.610;2022-11-23T01:58:57;14.85;;;6.07;;
9306;SDS011;4691;47.612;7.610;2022-11-23T02:03:51;13.83;;;6.10;;
9306;SDS011;4691;47.612;7.610;2022-11-23T02:06:19;16.65;;;6.70;;
9306;SDS011;4691;47.612;7.610;2022-11-23T02:08:47;18.17;;;6.22;;
9306;SDS011;4691;47.612;7.610;2022-11-23T02:11:13;16.80;;;6.22;;
9306;SDS011;4691;47.612;7.610;2022-11-23T02:13:40;13.50;;;6.43;;
9306;SDS011;4691;47.612;7.610;2022-11-23T02:16:08;10.90;;;5.32;;
9306;SDS011;4691;47.612;7.610;2022-11-23T02:18:34;12.85;;;5.85;;
9306;SDS011;4691;47.612;7.610;2022-11-23T02:21:01;13.30;;;5.20;;
9306;SDS011;4691;47.612;7.610;2022-11-23T02:26:22;12.13;;;4.68;;
9306;SDS011;4691;47.612;7.610;2022-11-23T02:28:56;13.63;;;5.55;;
9306;SDS011;4691;47.612;7.610;2022-11-23T02:31:27;16.30;;;4.75;;
9306;SDS011;4691;47.612;7.610;2022-11-23T02:33:52;13.75;;;4.78;;
9306;SDS011;4691;47.612;7.610;2022-11-23T02:39:07;15.43;;;4.60;;
9306;SDS011;4691;47.612;7.610;2022-11-23T02:41:38;12.77;;;4.93;;
9306;SDS011;4691;47.612;7.610;2022-11-23T02:44:08;13.80;;;4.97;;
9306;SDS011;4691;47.612;7.610;2022-11-23T02:46:42;13.60;;;4.95;;
9306;SDS011;4691;47.612;7.610;2022-11-23T02:49:07;13.68;;;5.88;;
9306;SDS011;4691;47.612;7.610;2022-11-23T02:51:33;19.42;;;5.60;;
9306;SDS011;4691;47.612;7.610;2022-11-23T02:53:58;13.50;;;6.43;;
9306;SDS011;4691;47.612;7.610;2022-11-23T02:56:23;15.70;;;6.05;;
9306;SDS011;4691;47.612;7.610;2022-11-23T02:58:49;10.93;;;5.80;;
9306;SDS011;4691;47.612;7.610;2022-11-23T03:01:14;13.65;;;5.88;;
9306;SDS011;4691;47.612;7.610;2022-11-23T03:03:39;15.23;;;6.00;;
9306;SDS011;4691;47.612;7.610;2022-11-23T03:06:05;11.43;;;5.88;;
9306;SDS011;4691;47.612;7.610;2022-11-23T03:08:30;17.02;;;6.10;;
9306;SDS011;4691;47.612;7.610;2022-11-23T03:10:55;13.88;;;6.30;;
9306;SDS011;4691;47.612;7.610;2022-11-23T03:13:21;15.68;;;6.60;;
9306;SDS011;4691;47.612;7.610;2022-11-23T03:15:46;15.02;;;5.60;;
9306;SDS011;4691;47.612;7.610;2022-11-23T03:19:32;11.98;;;6.22;;
9306;SDS011;4691;47.612;7.610;2022-11-23T03:21:57;15.27;;;6.70;;
9306;SDS011;4691;47.612;7.610;2022-11-23T03:24:22;16.63;;;6.53;;
9306;SDS011;4691;47.612;7.610;2022-11-23T03:26:48;17.55;;;6.88;;
9306;SDS011;4691;47.612;7.610;2022-11-23T03:29:13;16.00;;;7.32;;
9306;SDS011;4691;47.612;7.610;2022-11-23T03:31:39;14.77;;;7.00;;
9306;SDS011;4691;47.612;7.610;2022-11-23T03:34:04;13.73;;;5.95;;
9306;SDS011;4691;47.612;7.610;2022-11-23T03:36:29;17.38;;;5.85;;
9306;SDS011;4691;47.612;7.610;2022-11-23T03:38:55;22.80;;;7.35;;
9306;SDS011;4691;47.612;7.610;2022-11-23T03:41:20;18.42;;;6.38;;
9306;SDS011;4691;47.612;7.610;2022-11-23T03:43:45;13.80;;;6.47;;
9306;SDS011;4691;47.612;7.610;2022-11-23T03:46:11;15.52;;;6.43;;
9306;SDS011;4691;47.612;7.610;2022-11-23T03:48:36;18.38;;;7.22;;
9306;SDS011;4691;47.612;7.610;2022-11-23T03:51:02;19.08;;;6.43;;
9306;SDS011;4691;47.612;7.610;2022-11-23T03:53:27;12.35;;;5.72;;
9306;SDS011;4691;47.612;7.610;2022-11-23T03:55:52;15.13;;;6.15;;
9306;SDS011;4691;47.612;7.610;2022-11-23T03:58:20;15.05;;;5.47;;
9306;SDS011;4691;47.612;7.610;2022-11-23T04:00:45;14.13;;;6.55;;
9306;SDS011;4691;47.612;7.610;2022-11-23T04:03:10;12.68;;;5.80;;
9306;SDS011;4691;47.612;7.610;2022-11-23T04:05:36;15.25;;;5.63;;
9306;SDS011;4691;47.612;7.610;2022-11-23T04:08:01;12.63;;;5.90;;
9306;SDS011;4691;47.612;7.610;2022-11-23T04:10:27;14.57;;;5.97;;
9306;SDS011;4691;47.612;7.610;2022-11-23T04:12:52;17.25;;;5.80;;
9306;SDS011;4691;47.612;7.610;2022-11-23T04:15:17;11.60;;;5.53;;
9306;SDS011;4691;47.612;7.610;2022-11-23T04:17:43;18.65;;;5.85;;
9306;SDS011;4691;47.612;7.610;2022-11-23T04:20:08;14.20;;;5.95;;
9306;SDS011;4691;47.612;7.610;2022-11-23T04:22:34;16.45;;;6.35;;
9306;SDS011;4691;47.612;7.610;2022-11-23T04:24:59;16.25;;;7.07;;
9306;SDS011;4691;47.612;7.610;2022-11-23T04:27:25;18.17;;;5.45;;
9306;SDS011;4691;47.612;7.610;2022-11-23T04:29:50;14.70;;;5.43;;
9306;SDS011;4691;47.612;7.610;2022-11-23T04:32:15;16.40;;;5.70;;
9306;SDS011;4691;47.612;7.610;2022-11-23T04:34:41;11.63;;;5.15;;
9306;SDS011;4691;47.612;7.610;2022-11-23T04:37:06;9.40;;;4.82;;
9306;SDS011;4691;47.612;7.610;2022-11-23T04:39:31;14.30;;;4.60;;
9306;SDS011;4691;47.612;7.610;2022-11-23T04:41:56;9.82;;;4.72;;
9306;SDS011;4691;47.612;7.610;2022-11-23T04:44:22;11.00;;;4.97;;
9306;SDS011;4691;47.612;7.610;2022-11-23T04:46:47;8.30;;;4.30;;
9306;SDS011;4691;47.612;7.610;2022-11-23T04:49:14;10.10;;;4.53;;
9306;SDS011;4691;47.612;7.610;2022-11-23T04:51:39;15.65;;;5.90;;
9306;SDS011;4691;47.612;7.610;2022-11-23T04:54:05;16.05;;;6.38;;
9306;SDS011;4691;47.612;7.610;2022-11-23T04:56:30;14.23;;;6.25;;
9306;SDS011;4691;47.612;7.610;2022-11-23T04:58:56;14.10;;;7.10;;
9306;SDS011;4691;47.612;7.610;2022-11-23T05:01:21;18.77;;;8.60;;
9306;SDS011;4691;47.612;7.610;2022-11-23T05:03:46;17.75;;;8.52;;
9306;SDS011;4691;47.612;7.610;2022-11-23T05:06:11;20.25;;;9.45;;
9306;SDS011;4691;47.612;7.610;2022-11-23T05:08:37;23.30;;;8.50;;
9306;SDS011;4691;47.612;7.610;2022-11-23T05:11:02;21.83;;;7.70;;
9306;SDS011;4691;47.612;7.610;2022-11-23T05:13:27;15.50;;;9.00;;
9306;SDS011;4691;47.612;7.610;2022-11-23T05:15:53;16.83;;;7.15;;
9306;SDS011;4691;47.612;7.610;2022-11-23T05:18:18;18.65;;;7.57;;
9306;SDS011;4691;47.612;7.610;2022-11-23T05:20:44;17.40;;;6.38;;
9306;SDS011;4691;47.612;7.610;2022-11-23T05:23:10;20.58;;;6.57;;
9306;SDS011;4691;47.612;7.610;2022-11-23T05:25:35;14.30;;;7.30;;
9306;SDS011;4691;47.612;7.610;2022-11-23T05:28:01;12.77;;;5.35;;
9306;SDS011;4691;47.612;7.610;2022-11-23T05:30:26;12.90;;;5.88;;
9306;SDS011;4691;47.612;7.610;2022-11-23T05:32:52;13.38;;;6.45;;
9306;SDS011;4691;47.612;7.610;2022-11-23T05:35:17;14.48;;;5.97;;
9306;SDS011;4691;47.612;7.610;2022-11-23T05:37:42;13.45;;;6.10;;
9306;SDS011;4691;47.612;7.610;2022-11-23T05:40:08;13.35;;;7.10;;
9306;SDS011;4691;47.612;7.610;2022-11-23T05:42:34;17.35;;;6.68;;
9306;SDS011;4691;47.612;7.610;2022-11-23T05:44:59;18.15;;;7.35;;
9306;SDS011;4691;47.612;7.610;2022-11-23T05:47:24;21.85;;;7.65;;
9306;SDS011;4691;47.612;7.610;2022-11-23T05:49:50;16.90;;;7.82;;
9306;SDS011;4691;47.612;7.610;2022-11-23T05:52:15;13.57;;;7.50;;
9306;SDS011;4691;47.612;7.610;2022-11-23T05:54:41;14.38;;;6.97;;
9306;SDS011;4691;47.612;7.610;2022-11-23T05:57:07;17.45;;;7.47;;
9306;SDS011;4691;47.612;7.610;2022-11-23T05:59:32;17.85;;;8.50;;
9306;SDS011;4691;47.612;7.610;2022-11-23T06:01:57;18.25;;;7.57;;
9306;SDS011;4691;47.612;7.610;2022-11-23T06:04:23;13.73;;;8.20;;
9306;SDS011;4691;47.612;7.610;2022-11-23T06:06:48;12.55;;;7.00;;
9306;SDS011;4691;47.612;7.610;2022-11-23T06:09:13;15.15;;;7.45;;
9306;SDS011;4691;47.612;7.610;2022-11-23T06:11:39;13.68;;;7.97;;
9306;SDS011;4691;47.612;7.610;2022-11-23T06:14:04;10.80;;;6.15;;
9306;SDS011;4691;47.612;7.610;2022-11-23T06:16:29;12.95;;;6.53;;
9306;SDS011;4691;47.612;7.610;2022-11-23T06:18:55;13.50;;;6.25;;
9306;SDS011;4691;47.612;7.610;2022-11-23T06:21:21;14.65;;;6.93;;
9306;SDS011;4691;47.612;7.610;2022-11-23T06:23:46;15.00;;;7.60;;
9306;SDS011;4691;47.612;7.610;2022-11-23T06:26:11;15.73;;;7.35;;
9306;SDS011;4691;47.612;7.610;2022-11-23T06:28:37;37.45;;;17.35;;
9306;SDS011;4691;47.612;7.610;2022-11-23T06:31:03;24.02;;;12.65;;
9306;SDS011;4691;47.612;7.610;2022-11-23T06:33:29;25.17;;;12.07;;
9306;SDS011;4691;47.612;7.610;2022-11-23T06:35:55;16.52;;;9.10;;
9306;SDS011;4691;47.612;7.610;2022-11-23T06:38:23;15.10;;;7.40;;
9306;SDS011;4691;47.612;7.610;2022-11-23T06:40:48;17.35;;;8.40;;
9306;SDS011;4691;47.612;7.610;2022-11-23T06:43:14;16.80;;;8.63;;
9306;SDS011;4691;47.612;7.610;2022-11-23T06:45:39;21.30;;;9.20;;
9306;SDS011;4691;47.612;7.610;2022-11-23T06:48:04;17.75;;;9.85;;
9306;SDS011;4691;47.612;7.610;2022-11-23T06:50:30;17.88;;;6.97;;
9306;SDS011;4691;47.612;7.610;2022-11-23T06:52:55;13.65;;;6.72;;
9306;SDS011;4691;47.612;7.610;2022-11-23T06:55:22;12.23;;;5.72;;
9306;SDS011;4691;47.612;7.610;2022-11-23T06:57:48;13.63;;;6.05;;
9306;SDS011;4691;47.612;7.610;2022-11-23T07:00:13;11.13;;;5.82;;
9306;SDS011;4691;47.612;7.610;2022-11-23T07:02:39;15.60;;;7.90;;
9306;SDS011;4691;47.612;7.610;2022-11-23T07:05:04;10.90;;;5.80;;
9306;SDS011;4691;47.612;7.610;2022-11-23T07:07:30;13.82;;;6.00;;
9306;SDS011;4691;47.612;7.610;2022-11-23T07:09:56;15.05;;;6.30;;
9306;SDS011;4691;47.612;7.610;2022-11-23T07:12:21;15.48;;;6.35;;
9306;SDS011;4691;47.612;7.610;2022-11-23T07:14:46;13.23;;;6.57;;
9306;SDS011;4691;47.612;7.610;2022-11-23T07:17:11;11.38;;;5.53;;
9306;SDS011;4691;47.612;7.610;2022-11-23T07:19:37;12.80;;;6.20;;
9306;SDS011;4691;47.612;7.610;2022-11-23T07:22:02;25.48;;;8.23;;
9306;SDS011;4691;47.612;7.610;2022-11-23T07:24:27;14.15;;;6.25;;
9306;SDS011;4691;47.612;7.610;2022-11-23T07:26:53;17.40;;;6.93;;
9306;SDS011;4691;47.612;7.610;2022-11-23T07:29:18;14.45;;;6.90;;
9306;SDS011;4691;47.612;7.610;2022-11-23T07:31:43;15.90;;;6.32;;
9306;SDS011;4691;47.612;7.610;2022-11-23T07:34:09;12.80;;;6.38;;
9306;SDS011;4691;47.612;7.610;2022-11-23T07:36:35;13.75;;;6.47;;
9306;SDS011;4691;47.612;7.610;2022-11-23T07:39:00;16.83;;;5.95;;
9306;SDS011;4691;47.612;7.610;2022-11-23T07:41:26;11.70;;;5.28;;
9306;SDS011;4691;47.612;7.610;2022-11-23T07:43:51;13.85;;;5.25;;
9306;SDS011;4691;47.612;7.610;2022-11-23T07:46:17;11.82;;;5.53;;
9306;SDS011;4691;47.612;7.610;2022-11-23T07:48:42;14.50;;;6.05;;
9306;SDS011;4691;47.612;7.610;2022-11-23T07:51:07;12.27;;;5.72;;
9306;SDS011;4691;47.612;7.610;2022-11-23T07:53:33;13.15;;;6.55;;
9306;SDS011;4691;47.612;7.610;2022-11-23T07:56:00;13.15;;;6.45;;
9306;SDS011;4691;47.612;7.610;2022-11-23T07:58:25;18.73;;;6.32;;
9306;SDS011;4691;47.612;7.610;2022-11-23T08:00:51;10.95;;;5.75;;
9306;SDS011;4691;47.612;7.610;2022-11-23T08:03:17;13.50;;;6.70;;
9306;SDS011;4691;47.612;7.610;2022-11-23T08:05:42;20.73;;;7.57;;
9306;SDS011;4691;47.612;7.610;2022-11-23T08:08:07;14.27;;;7.35;;
9306;SDS011;4691;47.612;7.610;2022-11-23T08:10:33;19.13;;;7.95;;
9306;SDS011;4691;47.612;7.610;2022-11-23T08:12:59;12.95;;;7.18;;
9306;SDS011;4691;47.612;7.610;2022-11-23T08:15:25;18.15;;;7.22;;
9306;SDS011;4691;47.612;7.610;2022-11-23T08:17:57;12.98;;;7.47;;
9306;SDS011;4691;47.612;7.610;2022-11-23T08:20:24;12.60;;;6.60;;
9306;SDS011;4691;47.612;7.610;2022-11-23T08:22:50;11.95;;;6.50;;
9306;SDS011;4691;47.612;7.610;2022-11-23T08:25:16;12.40;;;6.40;;
9306;SDS011;4691;47.612;7.610;2022-11-23T08:27:42;10.73;;;5.82;;
9306;SDS011;4691;47.612;7.610;2022-11-23T08:30:07;13.60;;;6.32;;
9306;SDS011;4691;47.612;7.610;2022-11-23T08:32:33;14.95;;;6.90;;
9306;SDS011;4691;47.612;7.610;2022-11-23T08:34:58;15.15;;;7.65;;
9306;SDS011;4691;47.612;7.610;2022-11-23T08:37:23;11.80;;;7.35;;
9306;SDS011;4691;47.612;7.610;2022-11-23T08:39:49;16.50;;;8.05;;
9306;SDS011;4691;47.612;7.610;2022-11-23T08:42:14;16.02;;;7.57;;
9306;SDS011;4691;47.612;7.610;2022-11-23T08:44:39;14.82;;;7.75;;
9306;SDS011;4691;47.612;7.610;2022-11-23T08:47:04;19.45;;;8.32;;
9306;SDS011;4691;47.612;7.610;2022-11-23T08:49:30;17.67;;;8.90;;
9306;SDS011;4691;47.612;7.610;2022-11-23T08:51:55;15.90;;;7.72;;
9306;SDS011;4691;47.612;7.610;2022-11-23T08:54:20;13.13;;;8.07;;
9306;SDS011;4691;47.612;7.610;2022-11-23T08:56:48;18.17;;;7.57;;
9306;SDS011;4691;47.612;7.610;2022-11-23T08:59:14;14.10;;;7.13;;
9306;SDS011;4691;47.612;7.610;2022-11-23T09:01:41;13.38;;;6.20;;
9306;SDS011;4691;47.612;7.610;2022-11-23T09:04:06;13.88;;;7.32;;
9306;SDS011;4691;47.612;7.610;2022-11-23T09:06:32;15.07;;;6.90;;
9306;SDS011;4691;47.612;7.610;2022-11-23T09:08:58;13.48;;;6.28;;
9306;SDS011;4691;47.612;7.610;2022-11-23T09:11:23;14.52;;;6.47;;
9306;SDS011;4691;47.612;7.610;2022-11-23T09:13:50;13.38;;;6.00;;
9306;SDS011;4691;47.612;7.610;2022-11-23T09:16:15;13.63;;;6.10;;
9306;SDS011;4691;47.612;7.610;2022-11-23T09:18:41;12.73;;;5.63;;
9306;SDS011;4691;47.612;7.610;2022-11-23T09:21:06;11.68;;;5.78;;
9306;SDS011;4691;47.612;7.610;2022-11-23T09:23:31;10.18;;;5.10;;
9306;SDS011;4691;47.612;7.610;2022-11-23T09:25:57;10.63;;;4.93;;
9306;SDS011;4691;47.612;7.610;2022-11-23T09:28:24;14.63;;;4.95;;
9306;SDS011;4691;47.612;7.610;2022-11-23T09:30:51;14.32;;;5.32;;
9306;SDS011;4691;47.612;7.610;2022-11-23T09:33:17;10.63;;;5.32;;
9306;SDS011;4691;47.612;7.610;2022-11-23T09:35:42;9.55;;;4.63;;
9306;SDS011;4691;47.612;7.610;2022-11-23T09:38:08;9.75;;;4.88;;
9306;SDS011;4691;47.612;7.610;2022-11-23T09:40:35;13.60;;;4.88;;
9306;SDS011;4691;47.612;7.610;2022-11-23T09:48:21;8.38;;;4.63;;
9306;SDS011;4691;47.612;7.610;2022-11-23T09:50:59;8.07;;;3.92;;
9306;SDS011;4691;47.612;7.610;2022-11-23T09:53:34;10.32;;;4.32;;
9306;SDS011;4691;47.612;7.610;2022-11-23T09:56:05;11.48;;;4.07;;
9306;SDS011;4691;47.612;7.610;2022-11-23T09:58:40;9.30;;;4.00;;
9306;SDS011;4691;47.612;7.610;2022-11-23T10:01:06;10.18;;;3.90;;
9306;SDS011;4691;47.612;7.610;2022-11-23T10:03:37;10.45;;;4.53;;
9306;SDS011;4691;47.612;7.610;2022-11-23T10:06:17;9.32;;;3.97;;
9306;SDS011;4691;47.612;7.610;2022-11-23T10:09:10;7.43;;;4.38;;
9306;SDS011;4691;47.612;7.610;2022-11-23T10:17:03;8.60;;;3.70;;
9306;SDS011;4691;47.612;7.610;2022-11-23T10:19:46;6.53;;;3.78;;
9306;SDS011;4691;47.612;7.610;2022-11-23T10:22:46;10.80;;;3.72;;
9306;SDS011;4691;47.612;7.610;2022-11-23T10:25:20;8.23;;;3.80;;
9306;SDS011;4691;47.612;7.610;2022-11-23T10:27:47;10.77;;;4.57;;
9306;SDS011;4691;47.612;7.610;2022-11-23T10:30:15;7.15;;;3.83;;
9306;SDS011;4691;47.612;7.610;2022-11-23T10:32:47;9.63;;;3.97;;
9306;SDS011;4691;47.612;7.610;2022-11-23T10:41:02;8.15;;;3.80;;
9306;SDS011;4691;47.612;7.610;2022-11-23T10:43:35;5.85;;;3.20;;
9306;SDS011;4691;47.612;7.610;2022-11-23T10:46:23;8.45;;;3.38;;
9306;SDS011;4691;47.612;7.610;2022-11-23T10:48:51;9.10;;;3.88;;
9306;SDS011;4691;47.612;7.610;2022-11-23T10:53:52;11.23;;;4.07;;
9306;SDS011;4691;47.612;7.610;2022-11-23T10:56:20;8.13;;;3.40;;
9306;SDS011;4691;47.612;7.610;2022-11-23T10:58:46;9.20;;;3.13;;
9306;SDS011;4691;47.612;7.610;2022-11-23T11:01:16;8.35;;;3.30;;
9306;SDS011;4691;47.612;7.610;2022-11-23T11:03:46;6.50;;;3.40;;
9306;SDS011;4691;47.612;7.610;2022-11-23T11:06:15;6.55;;;3.38;;
9306;SDS011;4691;47.612;7.610;2022-11-23T11:08:57;7.97;;;3.17;;
9306;SDS011;4691;47.612;7.610;2022-11-23T11:11:32;6.03;;;3.33;;
9306;SDS011;4691;47.612;7.610;2022-11-23T11:14:21;7.30;;;2.67;;
9306;SDS011;4691;47.612;7.610;2022-11-23T11:16:51;4.13;;;2.80;;
9306;SDS011;4691;47.612;7.610;2022-11-23T11:19:28;8.90;;;3.50;;
9306;SDS011;4691;47.612;7.610;2022-11-23T11:21:56;5.03;;;2.58;;
9306;SDS011;4691;47.612;7.610;2022-11-23T11:24:34;3.65;;;2.50;;
9306;SDS011;4691;47.612;7.610;2022-11-23T11:27:02;3.92;;;2.60;;
9306;SDS011;4691;47.612;7.610;2022-11-23T11:29:45;3.33;;;2.10;;
9306;SDS011;4691;47.612;7.610;2022-11-23T11:34:52;4.32;;;1.98;;
9306;SDS011;4691;47.612;7.610;2022-11-23T11:37:35;6.85;;;2.95;;
9306;SDS011;4691;47.612;7.610;2022-11-23T11:40:25;5.10;;;2.80;;
9306;SDS011;4691;47.612;7.610;2022-11-23T11:43:14;5.60;;;2.40;;
9306;SDS011;4691;47.612;7.610;2022-11-23T11:48:23;4.68;;;2.50;;
9306;SDS011;4691;47.612;7.610;2022-11-23T11:50:55;4.18;;;2.10;;
9306;SDS011;4691;47.612;7.610;2022-11-23T11:53:29;4.68;;;2.67;;
9306;SDS011;4691;47.612;7.610;2022-11-23T11:56:03;6.50;;;2.10;;
9306;SDS011;4691;47.612;7.610;2022-11-23T11:58:36;4.40;;;2.15;;
9306;SDS011;4691;47.612;7.610;2022-11-23T12:01:24;5.35;;;2.35;;
9306;SDS011;4691;47.612;7.610;2022-11-23T12:04:01;5.35;;;3.17;;
9306;SDS011;4691;47.612;7.610;2022-11-23T12:09:05;7.78;;;3.03;;
9306;SDS011;4691;47.612;7.610;2022-11-23T12:11:40;4.65;;;2.55;;
9306;SDS011;4691;47.612;7.610;2022-11-23T12:14:09;5.22;;;2.38;;
9306;SDS011;4691;47.612;7.610;2022-11-23T12:25:15;5.30;;;2.30;;
9306;SDS011;4691;47.612;7.610;2022-11-23T12:27:58;4.13;;;2.47;;
9306;SDS011;4691;47.612;7.610;2022-11-23T12:30:41;5.97;;;2.78;;
9306;SDS011;4691;47.612;7.610;2022-11-23T12:41:22;6.68;;;2.90;;
9306;SDS011;4691;47.612;7.610;2022-11-23T12:57:40;7.47;;;2.42;;
9306;SDS011;4691;47.612;7.610;2022-11-23T13:00:14;3.72;;;2.33;;
9306;SDS011;4691;47.612;7.610;2022-11-23T13:08:17;8.13;;;2.78;;
9306;SDS011;4691;47.612;7.610;2022-11-23T13:16:51;8.90;;;2.92;;
9306;SDS011;4691;47.612;7.610;2022-11-23T13:22:14;8.23;;;3.40;;
9306;SDS011;4691;47.612;7.610;2022-11-23T13:24:59;8.13;;;3.13;;
9306;SDS011;4691;47.612;7.610;2022-11-23T13:29:54;8.20;;;3.08;;
9306;SDS011;4691;47.612;7.610;2022-11-23T13:35:02;6.32;;;2.72;;
9306;SDS011;4691;47.612;7.610;2022-11-23T13:40:20;6.60;;;3.17;;
9306;SDS011;4691;47.612;7.610;2022-11-23T13:42:46;6.60;;;2.60;;
9306;SDS011;4691;47.612;7.610;2022-11-23T13:45:13;4.30;;;2.05;;
9306;SDS011;4691;47.612;7.610;2022-11-23T13:50:31;6.47;;;2.78;;
9306;SDS011;4691;47.612;7.610;2022-11-23T13:52:57;7.65;;;2.60;;
9306;SDS011;4691;47.612;7.610;2022-11-23T13:55:32;6.53;;;2.80;;
9306;SDS011;4691;47.612;7.610;2022-11-23T14:11:30;6.55;;;2.63;;
9306;SDS011;4691;47.612;7.610;2022-11-23T14:14:03;8.07;;;3.10;;
9306;SDS011;4691;47.612;7.610;2022-11-23T14:16:41;4.43;;;2.50;;
9306;SDS011;4691;47.612;7.610;2022-11-23T14:19:31;5.25;;;2.88;;
9306;SDS011;4691;47.612;7.610;2022-11-23T14:27:39;6.60;;;2.85;;
9306;SDS011;4691;47.612;7.610;2022-11-23T14:30:48;9.52;;;3.42;;
9306;SDS011;4691;47.612;7.610;2022-11-23T14:38:44;8.00;;;3.22;;
9306;SDS011;4691;47.612;7.610;2022-11-23T14:41:32;6.57;;;2.92;;
9306;SDS011;4691;47.612;7.610;2022-11-23T14:44:00;7.85;;;2.70;;
9306;SDS011;4691;47.612;7.610;2022-11-23T14:46:27;6.18;;;2.70;;
9306;SDS011;4691;47.612;7.610;2022-11-23T14:49:01;5.53;;;2.75;;
9306;SDS011;4691;47.612;7.610;2022-11-23T14:51:29;5.30;;;2.58;;
9306;SDS011;4691;47.612;7.610;2022-11-23T14:53:56;4.40;;;2.20;;
9306;SDS011;4691;47.612;7.610;2022-11-23T14:59:00;5.00;;;2.35;;
9306;SDS011;4691;47.612;7.610;2022-11-23T15:01:28;6.20;;;2.50;;
9306;SDS011;4691;47.612;7.610;2022-11-23T15:03:57;5.00;;;2.70;;
9306;SDS011;4691;47.612;7.610;2022-11-23T15:06:29;5.65;;;2.67;;
9306;SDS011;4691;47.612;7.610;2022-11-23T15:11:28;7.75;;;3.65;;
9306;SDS011;4691;47.612;7.610;2022-11-23T15:13:56;9.20;;;4.55;;
9306;SDS011;4691;47.612;7.610;2022-11-23T15:16:28;12.30;;;5.65;;
9306;SDS011;4691;47.612;7.610;2022-11-23T15:19:15;7.20;;;3.63;;
9306;SDS011;4691;47.612;7.610;2022-11-23T15:21:41;9.93;;;4.85;;
9306;SDS011;4691;47.612;7.610;2022-11-23T15:24:21;7.10;;;2.85;;
9306;SDS011;4691;47.612;7.610;2022-11-23T15:26:48;3.80;;;2.42;;
9306;SDS011;4691;47.612;7.610;2022-11-23T15:29:30;5.05;;;2.42;;
9306;SDS011;4691;47.612;7.610;2022-11-23T15:31:59;7.03;;;3.45;;
9306;SDS011;4691;47.612;7.610;2022-11-23T15:34:25;8.10;;;2.70;;
9306;SDS011;4691;47.612;7.610;2022-11-23T15:36:51;6.35;;;3.13;;
9306;SDS011;4691;47.612;7.610;2022-11-23T15:39:19;6.28;;;2.83;;
9306;SDS011;4691;47.612;7.610;2022-11-23T15:41:48;4.87;;;2.53;;
9306;SDS011;4691;47.612;7.610;2022-11-23T15:44:15;5.97;;;3.20;;
9306;SDS011;4691;47.612;7.610;2022-11-23T15:46:47;8.65;;;5.30;;
9306;SDS011;4691;47.612;7.610;2022-11-23T15:49:13;15.82;;;8.05;;
9306;SDS011;4691;47.612;7.610;2022-11-23T15:51:40;10.00;;;4.07;;
9306;SDS011;4691;47.612;7.610;2022-11-23T15:54:13;7.20;;;3.95;;
9306;SDS011;4691;47.612;7.610;2022-11-23T15:56:43;8.35;;;5.65;;
9306;SDS011;4691;47.612;7.610;2022-11-23T15:59:53;9.63;;;5.57;;
9306;SDS011;4691;47.612;7.610;2022-11-23T16:02:18;3.97;;;2.28;;
9306;SDS011;4691;47.612;7.610;2022-11-23T16:04:45;5.50;;;2.85;;
9306;SDS011;4691;47.612;7.610;2022-11-23T16:07:23;11.52;;;5.45;;
9306;SDS011;4691;47.612;7.610;2022-11-23T16:12:30;14.88;;;6.40;;
9306;SDS011;4691;47.612;7.610;2022-11-23T16:15:30;7.82;;;4.15;;
9306;SDS011;4691;47.612;7.610;2022-11-23T16:17:58;14.73;;;6.05;;
9306;SDS011;4691;47.612;7.610;2022-11-23T16:20:25;14.30;;;5.32;;
9306;SDS011;4691;47.612;7.610;2022-11-23T16:22:52;11.07;;;5.88;;
9306;SDS011;4691;47.612;7.610;2022-11-23T16:25:23;11.07;;;6.20;;
9306;SDS011;4691;47.612;7.610;2022-11-23T16:30:26;9.75;;;5.13;;
9306;SDS011;4691;47.612;7.610;2022-11-23T16:32:59;14.13;;;6.35;;
9306;SDS011;4691;47.612;7.610;2022-11-23T16:35:24;10.70;;;5.88;;
9306;SDS011;4691;47.612;7.610;2022-11-23T16:37:49;15.45;;;6.50;;
9306;SDS011;4691;47.612;7.610;2022-11-23T16:40:15;12.38;;;8.60;;
9306;SDS011;4691;47.612;7.610;2022-11-23T16:42:40;17.88;;;9.75;;
9306;SDS011;4691;47.612;7.610;2022-11-23T16:45:06;23.00;;;9.70;;
9306;SDS011;4691;47.612;7.610;2022-11-23T16:47:32;18.98;;;10.70;;
9306;SDS011;4691;47.612;7.610;2022-11-23T16:49:58;20.70;;;11.20;;
9306;SDS011;4691;47.612;7.610;2022-11-23T16:52:23;22.08;;;13.02;;
9306;SDS011;4691;47.612;7.610;2022-11-23T16:54:49;22.90;;;11.68;;
9306;SDS011;4691;47.612;7.610;2022-11-23T16:57:35;19.90;;;12.20;;
9306;SDS011;4691;47.612;7.610;2022-11-23T17:00:01;18.63;;;10.38;;
9306;SDS011;4691;47.612;7.610;2022-11-23T17:02:29;15.93;;;8.70;;
9306;SDS011;4691;47.612;7.610;2022-11-23T17:04:54;14.57;;;9.05;;
9306;SDS011;4691;47.612;7.610;2022-11-23T17:07:20;16.10;;;9.98;;
9306;SDS011;4691;47.612;7.610;2022-11-23T17:09:45;16.80;;;10.75;;
9306;SDS011;4691;47.612;7.610;2022-11-23T17:12:12;15.77;;;9.77;;
9306;SDS011;4691;47.612;7.610;2022-11-23T17:14:39;14.35;;;10.15;;
9306;SDS011;4691;47.612;7.610;2022-11-23T17:17:08;16.42;;;10.07;;
9306;SDS011;4691;47.612;7.610;2022-11-23T17:19:34;22.38;;;12.38;;
9306;SDS011;4691;47.612;7.610;2022-11-23T17:22:00;17.73;;;11.60;;